Portada
METAR-TAF:

METAR-TAF

Aeropuertos :

Colmenar Viejo, España

latitud: 40-39N, longitud: 003-44W, altitud: -999 m

Observación

El informe se hizo hace 41 minutos, a las 08:30 UTC
Viento 7 kt del noreste
Temperatura 12°C
Humedad 50%
Presión 1026 hPa
Visibilidad 10 km o más
sin nubes por debajo de 1500 m y sin presencia de cumulonimbus.

METAR: LECV 270830Z 05007KT CAVOK 12/02 Q1026

Hora: 10:11 (09:11 UTC)

Pronóstico

El informe se hizo hace 4 horas y 11 minutos, a las 05:00 UTC
Pronóstico válido del 27 a las 06 UTC al 28 a las 06 UTC
Viento 6 kt del norte-noreste
Visibilidad 10 km o más
sin nubes por debajo de 1500 m y sin presencia de cumulonimbus.

TAF: LECV 270500Z 2706/2806 02006KT CAVOK TX15/2715Z TN05/2806Z

Observaciones y pronósticos meteorológicos de más de 4000 aeropuertos (mensajes METAR y TAF).

Los puntos amarillos y rojos representan las estaciones disponibles.

Ponga el ratón en el punto deseado para ver el nombre de la estación.

Haga clic para ver las observaciones y los pronósticos meteorológicos.

Para cambiar el mapa : haga clic en los botones verdes con una cruz de color negro para hacer un zoom, en el botón verde con un guión para alejar o en las flechas verdes para mapas adyacentes.


METAR-TAF: